sensor_id;sensor_type;location;lat;lon;timestamp;P1;durP1;ratioP1;P2;durP2;ratioP2
26303;SDS011;57113;48.680;8.890;2022-12-10T00:00:51;18.30;;;12.15;;
26303;SDS011;57113;48.680;8.890;2022-12-10T00:03:16;21.02;;;12.68;;
26303;SDS011;57113;48.680;8.890;2022-12-10T00:05:42;20.05;;;13.13;;
26303;SDS011;57113;48.680;8.890;2022-12-10T00:08:08;16.88;;;12.20;;
26303;SDS011;57113;48.680;8.890;2022-12-10T00:10:33;18.70;;;12.32;;
26303;SDS011;57113;48.680;8.890;2022-12-10T00:12:59;17.90;;;11.80;;
26303;SDS011;57113;48.680;8.890;2022-12-10T00:15:24;17.33;;;11.73;;
26303;SDS011;57113;48.680;8.890;2022-12-10T00:17:50;19.50;;;12.60;;
26303;SDS011;57113;48.680;8.890;2022-12-10T00:20:16;19.23;;;12.55;;
26303;SDS011;57113;48.680;8.890;2022-12-10T00:22:41;17.65;;;11.73;;
26303;SDS011;57113;48.680;8.890;2022-12-10T00:25:07;19.58;;;12.65;;
26303;SDS011;57113;48.680;8.890;2022-12-10T00:27:33;16.50;;;11.52;;
26303;SDS011;57113;48.680;8.890;2022-12-10T00:29:58;18.65;;;12.20;;
26303;SDS011;57113;48.680;8.890;2022-12-10T00:32:24;15.70;;;11.20;;
26303;SDS011;57113;48.680;8.890;2022-12-10T00:34:49;19.05;;;12.15;;
26303;SDS011;57113;48.680;8.890;2022-12-10T00:37:15;16.20;;;11.40;;
26303;SDS011;57113;48.680;8.890;2022-12-10T00:39:41;15.52;;;10.98;;
26303;SDS011;57113;48.680;8.890;2022-12-10T00:42:06;16.70;;;11.30;;
26303;SDS011;57113;48.680;8.890;2022-12-10T00:44:32;16.60;;;11.52;;
26303;SDS011;57113;48.680;8.890;2022-12-10T00:46:57;16.50;;;11.23;;
26303;SDS011;57113;48.680;8.890;2022-12-10T00:49:23;15.07;;;11.32;;
26303;SDS011;57113;48.680;8.890;2022-12-10T00:51:49;18.13;;;11.40;;
26303;SDS011;57113;48.680;8.890;2022-12-10T00:54:15;17.05;;;11.75;;
26303;SDS011;57113;48.680;8.890;2022-12-10T00:56:41;19.83;;;12.23;;
26303;SDS011;57113;48.680;8.890;2022-12-10T00:59:07;17.02;;;12.02;;
26303;SDS011;57113;48.680;8.890;2022-12-10T01:01:37;17.02;;;11.35;;
26303;SDS011;57113;48.680;8.890;2022-12-10T01:04:08;16.40;;;11.75;;
26303;SDS011;57113;48.680;8.890;2022-12-10T01:06:39;19.60;;;12.50;;
26303;SDS011;57113;48.680;8.890;2022-12-10T01:09:07;18.58;;;12.68;;
26303;SDS011;57113;48.680;8.890;2022-12-10T01:11:36;18.17;;;12.80;;
26303;SDS011;57113;48.680;8.890;2022-12-10T01:14:04;16.45;;;11.23;;
26303;SDS011;57113;48.680;8.890;2022-12-10T01:16:31;20.35;;;12.35;;
26303;SDS011;57113;48.680;8.890;2022-12-10T01:18:57;17.05;;;12.13;;
26303;SDS011;57113;48.680;8.890;2022-12-10T01:21:24;17.73;;;12.23;;
26303;SDS011;57113;48.680;8.890;2022-12-10T01:23:51;19.20;;;12.00;;
26303;SDS011;57113;48.680;8.890;2022-12-10T01:26:22;17.02;;;12.18;;
26303;SDS011;57113;48.680;8.890;2022-12-10T01:28:49;16.83;;;11.88;;
26303;SDS011;57113;48.680;8.890;2022-12-10T01:31:19;17.17;;;11.77;;
26303;SDS011;57113;48.680;8.890;2022-12-10T01:33:47;16.95;;;11.70;;
26303;SDS011;57113;48.680;8.890;2022-12-10T01:36:14;16.15;;;11.65;;
26303;SDS011;57113;48.680;8.890;2022-12-10T01:38:44;16.10;;;12.00;;
26303;SDS011;57113;48.680;8.890;2022-12-10T01:41:14;17.77;;;11.98;;
26303;SDS011;57113;48.680;8.890;2022-12-10T01:46:19;16.95;;;11.50;;
26303;SDS011;57113;48.680;8.890;2022-12-10T01:48:45;15.27;;;11.32;;
26303;SDS011;57113;48.680;8.890;2022-12-10T01:51:12;17.00;;;11.38;;
26303;SDS011;57113;48.680;8.890;2022-12-10T01:53:39;19.70;;;11.70;;
26303;SDS011;57113;48.680;8.890;2022-12-10T01:56:05;17.33;;;11.68;;
26303;SDS011;57113;48.680;8.890;2022-12-10T01:58:31;16.75;;;11.80;;
26303;SDS011;57113;48.680;8.890;2022-12-10T02:03:51;18.63;;;11.98;;
26303;SDS011;57113;48.680;8.890;2022-12-10T02:09:04;19.60;;;12.38;;
26303;SDS011;57113;48.680;8.890;2022-12-10T02:11:44;17.38;;;11.35;;
26303;SDS011;57113;48.680;8.890;2022-12-10T02:14:17;16.25;;;12.23;;
26303;SDS011;57113;48.680;8.890;2022-12-10T02:22:23;17.80;;;11.27;;
26303;SDS011;57113;48.680;8.890;2022-12-10T02:24:52;16.10;;;11.65;;
26303;SDS011;57113;48.680;8.890;2022-12-10T02:27:26;18.65;;;11.63;;
26303;SDS011;57113;48.680;8.890;2022-12-10T02:30:00;16.30;;;11.60;;
26303;SDS011;57113;48.680;8.890;2022-12-10T02:32:27;16.33;;;11.63;;
26303;SDS011;57113;48.680;8.890;2022-12-10T02:35:03;14.43;;;10.43;;
26303;SDS011;57113;48.680;8.890;2022-12-10T02:37:33;15.25;;;10.77;;
26303;SDS011;57113;48.680;8.890;2022-12-10T02:40:04;16.83;;;11.73;;
26303;SDS011;57113;48.680;8.890;2022-12-10T02:42:36;15.65;;;11.18;;
26303;SDS011;57113;48.680;8.890;2022-12-10T02:45:05;16.67;;;11.27;;
26303;SDS011;57113;48.680;8.890;2022-12-10T02:47:32;16.50;;;11.43;;
26303;SDS011;57113;48.680;8.890;2022-12-10T02:49:59;17.02;;;11.88;;
26303;SDS011;57113;48.680;8.890;2022-12-10T02:52:25;16.17;;;11.27;;
26303;SDS011;57113;48.680;8.890;2022-12-10T02:54:52;16.38;;;11.43;;
26303;SDS011;57113;48.680;8.890;2022-12-10T02:57:37;17.52;;;10.85;;
26303;SDS011;57113;48.680;8.890;2022-12-10T03:00:15;15.45;;;11.05;;
26303;SDS011;57113;48.680;8.890;2022-12-10T03:05:31;16.23;;;11.57;;
26303;SDS011;57113;48.680;8.890;2022-12-10T03:08:25;16.38;;;11.65;;
26303;SDS011;57113;48.680;8.890;2022-12-10T03:11:11;14.73;;;10.75;;
26303;SDS011;57113;48.680;8.890;2022-12-10T03:16:42;18.52;;;11.38;;
26303;SDS011;57113;48.680;8.890;2022-12-10T03:19:17;15.77;;;10.68;;
26303;SDS011;57113;48.680;8.890;2022-12-10T03:21:46;17.00;;;11.75;;
26303;SDS011;57113;48.680;8.890;2022-12-10T03:24:13;16.70;;;11.60;;
26303;SDS011;57113;48.680;8.890;2022-12-10T03:26:40;15.73;;;11.23;;
26303;SDS011;57113;48.680;8.890;2022-12-10T03:29:09;17.35;;;11.27;;
26303;SDS011;57113;48.680;8.890;2022-12-10T03:31:40;16.33;;;11.18;;
26303;SDS011;57113;48.680;8.890;2022-12-10T03:34:06;15.25;;;10.95;;
26303;SDS011;57113;48.680;8.890;2022-12-10T03:36:34;17.98;;;11.73;;
26303;SDS011;57113;48.680;8.890;2022-12-10T03:39:00;15.90;;;10.82;;
26303;SDS011;57113;48.680;8.890;2022-12-10T03:41:26;15.88;;;11.15;;
26303;SDS011;57113;48.680;8.890;2022-12-10T03:43:53;19.35;;;12.55;;
26303;SDS011;57113;48.680;8.890;2022-12-10T03:46:21;18.27;;;11.02;;
26303;SDS011;57113;48.680;8.890;2022-12-10T03:48:47;15.50;;;10.75;;
26303;SDS011;57113;48.680;8.890;2022-12-10T03:51:13;15.70;;;10.68;;
26303;SDS011;57113;48.680;8.890;2022-12-10T03:53:40;16.75;;;11.15;;
26303;SDS011;57113;48.680;8.890;2022-12-10T03:56:05;15.60;;;11.18;;
26303;SDS011;57113;48.680;8.890;2022-12-10T03:58:31;16.05;;;11.15;;
26303;SDS011;57113;48.680;8.890;2022-12-10T04:00:57;16.23;;;12.02;;
26303;SDS011;57113;48.680;8.890;2022-12-10T04:03:22;15.88;;;11.32;;
26303;SDS011;57113;48.680;8.890;2022-12-10T04:05:48;15.57;;;11.35;;
26303;SDS011;57113;48.680;8.890;2022-12-10T04:08:14;16.10;;;11.73;;
26303;SDS011;57113;48.680;8.890;2022-12-10T04:10:40;16.13;;;11.27;;
26303;SDS011;57113;48.680;8.890;2022-12-10T04:13:05;20.58;;;11.88;;
26303;SDS011;57113;48.680;8.890;2022-12-10T04:15:49;15.38;;;10.43;;
26303;SDS011;57113;48.680;8.890;2022-12-10T04:18:33;14.82;;;11.18;;
26303;SDS011;57113;48.680;8.890;2022-12-10T04:20:59;17.02;;;11.32;;
26303;SDS011;57113;48.680;8.890;2022-12-10T04:23:44;15.20;;;11.30;;
26303;SDS011;57113;48.680;8.890;2022-12-10T04:26:28;14.98;;;10.93;;
26303;SDS011;57113;48.680;8.890;2022-12-10T04:29:12;16.13;;;11.48;;
26303;SDS011;57113;48.680;8.890;2022-12-10T04:31:37;15.90;;;11.13;;
26303;SDS011;57113;48.680;8.890;2022-12-10T04:34:03;15.00;;;11.10;;
26303;SDS011;57113;48.680;8.890;2022-12-10T04:36:29;16.48;;;11.23;;
26303;SDS011;57113;48.680;8.890;2022-12-10T04:38:54;16.08;;;10.93;;
26303;SDS011;57113;48.680;8.890;2022-12-10T04:41:20;17.33;;;11.63;;
26303;SDS011;57113;48.680;8.890;2022-12-10T04:43:46;16.15;;;11.05;;
26303;SDS011;57113;48.680;8.890;2022-12-10T04:46:11;15.57;;;11.05;;
26303;SDS011;57113;48.680;8.890;2022-12-10T04:48:37;14.98;;;11.77;;
26303;SDS011;57113;48.680;8.890;2022-12-10T04:51:02;17.17;;;10.50;;
26303;SDS011;57113;48.680;8.890;2022-12-10T04:53:29;14.40;;;10.35;;
26303;SDS011;57113;48.680;8.890;2022-12-10T04:55:54;16.33;;;11.88;;
26303;SDS011;57113;48.680;8.890;2022-12-10T04:58:20;15.32;;;10.65;;
26303;SDS011;57113;48.680;8.890;2022-12-10T05:00:46;16.27;;;11.30;;
26303;SDS011;57113;48.680;8.890;2022-12-10T05:03:11;15.98;;;10.85;;
26303;SDS011;57113;48.680;8.890;2022-12-10T05:05:37;15.88;;;10.98;;
26303;SDS011;57113;48.680;8.890;2022-12-10T05:08:02;14.43;;;11.20;;
26303;SDS011;57113;48.680;8.890;2022-12-10T05:10:29;15.80;;;10.98;;
26303;SDS011;57113;48.680;8.890;2022-12-10T05:12:55;16.17;;;11.35;;
26303;SDS011;57113;48.680;8.890;2022-12-10T05:15:21;17.98;;;11.60;;
26303;SDS011;57113;48.680;8.890;2022-12-10T05:17:47;15.70;;;11.45;;
26303;SDS011;57113;48.680;8.890;2022-12-10T05:20:12;15.30;;;10.55;;
26303;SDS011;57113;48.680;8.890;2022-12-10T05:22:38;14.75;;;10.82;;
26303;SDS011;57113;48.680;8.890;2022-12-10T05:25:22;15.63;;;10.60;;
26303;SDS011;57113;48.680;8.890;2022-12-10T05:27:48;14.82;;;10.77;;
26303;SDS011;57113;48.680;8.890;2022-12-10T05:30:13;16.02;;;10.80;;
26303;SDS011;57113;48.680;8.890;2022-12-10T05:32:39;15.20;;;10.82;;
26303;SDS011;57113;48.680;8.890;2022-12-10T05:35:05;15.55;;;10.65;;
26303;SDS011;57113;48.680;8.890;2022-12-10T05:37:30;16.65;;;11.13;;
26303;SDS011;57113;48.680;8.890;2022-12-10T05:39:56;17.33;;;11.10;;
26303;SDS011;57113;48.680;8.890;2022-12-10T05:42:22;16.52;;;11.32;;
26303;SDS011;57113;48.680;8.890;2022-12-10T05:44:47;14.20;;;10.85;;
26303;SDS011;57113;48.680;8.890;2022-12-10T05:47:13;17.58;;;11.50;;
26303;SDS011;57113;48.680;8.890;2022-12-10T05:49:39;15.63;;;11.15;;
26303;SDS011;57113;48.680;8.890;2022-12-10T05:52:04;16.73;;;11.75;;
26303;SDS011;57113;48.680;8.890;2022-12-10T05:54:30;15.20;;;10.77;;
26303;SDS011;57113;48.680;8.890;2022-12-10T05:56:56;16.55;;;11.07;;
26303;SDS011;57113;48.680;8.890;2022-12-10T05:59:21;14.15;;;10.77;;
26303;SDS011;57113;48.680;8.890;2022-12-10T06:01:47;16.40;;;11.35;;
26303;SDS011;57113;48.680;8.890;2022-12-10T06:04:13;18.98;;;12.02;;
26303;SDS011;57113;48.680;8.890;2022-12-10T06:06:39;16.40;;;11.75;;
26303;SDS011;57113;48.680;8.890;2022-12-10T06:09:06;17.60;;;12.00;;
26303;SDS011;57113;48.680;8.890;2022-12-10T06:11:35;16.20;;;11.48;;
26303;SDS011;57113;48.680;8.890;2022-12-10T06:14:01;17.13;;;11.48;;
26303;SDS011;57113;48.680;8.890;2022-12-10T06:16:27;15.98;;;11.40;;
26303;SDS011;57113;48.680;8.890;2022-12-10T06:18:53;17.60;;;12.55;;
26303;SDS011;57113;48.680;8.890;2022-12-10T06:21:19;16.27;;;11.60;;
26303;SDS011;57113;48.680;8.890;2022-12-10T06:23:46;14.57;;;10.25;;
26303;SDS011;57113;48.680;8.890;2022-12-10T06:26:14;14.82;;;10.40;;
26303;SDS011;57113;48.680;8.890;2022-12-10T06:28:43;16.02;;;10.98;;
26303;SDS011;57113;48.680;8.890;2022-12-10T06:31:10;17.52;;;11.25;;
26303;SDS011;57113;48.680;8.890;2022-12-10T06:33:36;16.77;;;11.52;;
26303;SDS011;57113;48.680;8.890;2022-12-10T06:36:03;17.40;;;11.88;;
26303;SDS011;57113;48.680;8.890;2022-12-10T06:38:32;15.07;;;10.57;;
26303;SDS011;57113;48.680;8.890;2022-12-10T06:40:59;16.55;;;10.85;;
26303;SDS011;57113;48.680;8.890;2022-12-10T06:43:27;14.63;;;10.70;;
26303;SDS011;57113;48.680;8.890;2022-12-10T06:45:53;16.30;;;11.18;;
26303;SDS011;57113;48.680;8.890;2022-12-10T06:48:19;15.90;;;11.25;;
26303;SDS011;57113;48.680;8.890;2022-12-10T06:50:44;16.02;;;11.25;;
26303;SDS011;57113;48.680;8.890;2022-12-10T06:53:10;15.93;;;11.00;;
26303;SDS011;57113;48.680;8.890;2022-12-10T06:55:36;15.15;;;10.88;;
26303;SDS011;57113;48.680;8.890;2022-12-10T06:58:03;17.33;;;11.50;;
26303;SDS011;57113;48.680;8.890;2022-12-10T07:00:29;15.30;;;10.77;;
26303;SDS011;57113;48.680;8.890;2022-12-10T07:02:55;19.25;;;12.30;;
26303;SDS011;57113;48.680;8.890;2022-12-10T07:05:20;17.65;;;11.80;;
26303;SDS011;57113;48.680;8.890;2022-12-10T07:07:46;15.98;;;11.55;;
26303;SDS011;57113;48.680;8.890;2022-12-10T07:10:12;17.15;;;12.23;;
26303;SDS011;57113;48.680;8.890;2022-12-10T07:12:38;16.95;;;11.70;;
26303;SDS011;57113;48.680;8.890;2022-12-10T07:15:03;16.63;;;11.35;;
26303;SDS011;57113;48.680;8.890;2022-12-10T07:17:30;18.23;;;11.55;;
26303;SDS011;57113;48.680;8.890;2022-12-10T07:19:55;16.08;;;11.07;;
26303;SDS011;57113;48.680;8.890;2022-12-10T07:22:21;16.52;;;11.02;;
26303;SDS011;57113;48.680;8.890;2022-12-10T07:24:47;15.60;;;11.50;;
26303;SDS011;57113;48.680;8.890;2022-12-10T07:27:13;16.30;;;11.48;;
26303;SDS011;57113;48.680;8.890;2022-12-10T07:29:39;16.90;;;11.60;;
26303;SDS011;57113;48.680;8.890;2022-12-10T07:32:05;17.08;;;11.77;;
26303;SDS011;57113;48.680;8.890;2022-12-10T07:34:30;15.48;;;11.55;;
26303;SDS011;57113;48.680;8.890;2022-12-10T07:36:56;15.55;;;11.48;;
26303;SDS011;57113;48.680;8.890;2022-12-10T07:39:21;17.23;;;11.68;;
26303;SDS011;57113;48.680;8.890;2022-12-10T07:41:48;15.48;;;11.18;;
26303;SDS011;57113;48.680;8.890;2022-12-10T07:44:18;16.20;;;10.95;;
26303;SDS011;57113;48.680;8.890;2022-12-10T07:46:46;16.25;;;11.77;;
26303;SDS011;57113;48.680;8.890;2022-12-10T07:49:12;16.23;;;11.73;;
26303;SDS011;57113;48.680;8.890;2022-12-10T07:51:38;18.05;;;11.27;;
26303;SDS011;57113;48.680;8.890;2022-12-10T07:54:03;18.67;;;12.38;;
26303;SDS011;57113;48.680;8.890;2022-12-10T07:56:29;17.63;;;11.90;;
26303;SDS011;57113;48.680;8.890;2022-12-10T07:58:55;15.73;;;11.10;;
26303;SDS011;57113;48.680;8.890;2022-12-10T08:01:22;16.50;;;11.13;;
26303;SDS011;57113;48.680;8.890;2022-12-10T08:03:49;15.50;;;11.35;;
26303;SDS011;57113;48.680;8.890;2022-12-10T08:06:16;16.85;;;11.60;;
26303;SDS011;57113;48.680;8.890;2022-12-10T08:08:44;16.65;;;11.65;;
26303;SDS011;57113;48.680;8.890;2022-12-10T08:11:11;17.73;;;12.07;;
26303;SDS011;57113;48.680;8.890;2022-12-10T08:13:37;17.35;;;12.15;;
26303;SDS011;57113;48.680;8.890;2022-12-10T08:16:04;16.55;;;11.35;;
26303;SDS011;57113;48.680;8.890;2022-12-10T08:18:32;16.58;;;12.00;;
26303;SDS011;57113;48.680;8.890;2022-12-10T08:21:03;14.80;;;10.98;;
26303;SDS011;57113;48.680;8.890;2022-12-10T08:23:30;19.13;;;12.15;;
26303;SDS011;57113;48.680;8.890;2022-12-10T08:25:56;16.48;;;11.77;;
26303;SDS011;57113;48.680;8.890;2022-12-10T08:28:21;15.60;;;11.10;;
26303;SDS011;57113;48.680;8.890;2022-12-10T08:30:47;16.70;;;12.13;;
26303;SDS011;57113;48.680;8.890;2022-12-10T08:33:13;17.65;;;11.95;;
26303;SDS011;57113;48.680;8.890;2022-12-10T08:35:39;17.63;;;11.93;;
26303;SDS011;57113;48.680;8.890;2022-12-10T08:38:05;15.23;;;11.32;;
26303;SDS011;57113;48.680;8.890;2022-12-10T08:40:30;17.45;;;11.90;;
26303;SDS011;57113;48.680;8.890;2022-12-10T08:42:56;17.35;;;11.90;;
26303;SDS011;57113;48.680;8.890;2022-12-10T08:45:21;16.45;;;11.25;;
26303;SDS011;57113;48.680;8.890;2022-12-10T08:47:47;17.80;;;11.63;;
26303;SDS011;57113;48.680;8.890;2022-12-10T08:50:13;14.38;;;10.95;;
26303;SDS011;57113;48.680;8.890;2022-12-10T08:52:38;16.40;;;11.73;;
26303;SDS011;57113;48.680;8.890;2022-12-10T08:55:04;17.02;;;11.27;;
26303;SDS011;57113;48.680;8.890;2022-12-10T08:57:30;16.80;;;11.80;;
26303;SDS011;57113;48.680;8.890;2022-12-10T08:59:55;15.27;;;11.23;;
26303;SDS011;57113;48.680;8.890;2022-12-10T09:02:21;17.30;;;12.20;;
26303;SDS011;57113;48.680;8.890;2022-12-10T09:04:47;14.88;;;10.85;;
26303;SDS011;57113;48.680;8.890;2022-12-10T09:07:14;14.95;;;10.70;;
26303;SDS011;57113;48.680;8.890;2022-12-10T09:09:40;15.88;;;12.07;;
26303;SDS011;57113;48.680;8.890;2022-12-10T09:12:05;16.90;;;11.68;;
26303;SDS011;57113;48.680;8.890;2022-12-10T09:14:31;17.67;;;11.02;;
26303;SDS011;57113;48.680;8.890;2022-12-10T09:16:57;14.82;;;10.75;;
26303;SDS011;57113;48.680;8.890;2022-12-10T09:19:23;17.38;;;11.35;;
26303;SDS011;57113;48.680;8.890;2022-12-10T09:21:48;15.80;;;11.50;;
26303;SDS011;57113;48.680;8.890;2022-12-10T09:24:14;15.02;;;10.95;;
26303;SDS011;57113;48.680;8.890;2022-12-10T09:26:39;16.70;;;12.00;;
26303;SDS011;57113;48.680;8.890;2022-12-10T09:29:05;16.45;;;12.35;;
26303;SDS011;57113;48.680;8.890;2022-12-10T09:31:31;15.25;;;11.77;;
26303;SDS011;57113;48.680;8.890;2022-12-10T09:33:56;15.95;;;11.10;;
26303;SDS011;57113;48.680;8.890;2022-12-10T09:36:22;16.70;;;11.98;;
26303;SDS011;57113;48.680;8.890;2022-12-10T09:38:48;17.95;;;11.82;;
26303;SDS011;57113;48.680;8.890;2022-12-10T09:41:36;15.98;;;11.40;;
26303;SDS011;57113;48.680;8.890;2022-12-10T09:46:58;16.60;;;11.23;;
26303;SDS011;57113;48.680;8.890;2022-12-10T09:52:37;16.52;;;11.18;;
26303;SDS011;57113;48.680;8.890;2022-12-10T09:55:11;17.70;;;12.13;;
26303;SDS011;57113;48.680;8.890;2022-12-10T09:57:43;17.00;;;11.88;;
26303;SDS011;57113;48.680;8.890;2022-12-10T10:00:19;16.90;;;11.38;;
26303;SDS011;57113;48.680;8.890;2022-12-10T10:02:45;16.35;;;12.40;;
26303;SDS011;57113;48.680;8.890;2022-12-10T10:05:13;17.98;;;12.13;;
26303;SDS011;57113;48.680;8.890;2022-12-10T10:08:06;17.02;;;11.35;;
26303;SDS011;57113;48.680;8.890;2022-12-10T10:10:40;16.33;;;11.40;;
26303;SDS011;57113;48.680;8.890;2022-12-10T10:15:32;15.93;;;11.32;;
26303;SDS011;57113;48.680;8.890;2022-12-10T10:21:07;16.33;;;11.15;;
26303;SDS011;57113;48.680;8.890;2022-12-10T10:23:45;15.63;;;10.95;;
26303;SDS011;57113;48.680;8.890;2022-12-10T10:26:11;15.95;;;11.20;;
26303;SDS011;57113;48.680;8.890;2022-12-10T10:28:36;15.15;;;11.15;;
26303;SDS011;57113;48.680;8.890;2022-12-10T10:31:12;15.38;;;11.45;;
26303;SDS011;57113;48.680;8.890;2022-12-10T10:33:47;16.98;;;11.52;;
26303;SDS011;57113;48.680;8.890;2022-12-10T10:36:22;17.45;;;11.98;;
26303;SDS011;57113;48.680;8.890;2022-12-10T10:38:49;15.77;;;10.52;;
26303;SDS011;57113;48.680;8.890;2022-12-10T10:41:15;14.82;;;10.63;;
26303;SDS011;57113;48.680;8.890;2022-12-10T10:43:41;16.45;;;11.50;;
26303;SDS011;57113;48.680;8.890;2022-12-10T10:48:39;16.75;;;10.90;;
26303;SDS011;57113;48.680;8.890;2022-12-10T10:51:07;15.93;;;10.93;;
26303;SDS011;57113;48.680;8.890;2022-12-10T10:53:43;16.70;;;10.82;;
26303;SDS011;57113;48.680;8.890;2022-12-10T10:56:21;16.08;;;11.23;;
26303;SDS011;57113;48.680;8.890;2022-12-10T11:04:43;16.58;;;11.40;;
26303;SDS011;57113;48.680;8.890;2022-12-10T11:07:26;14.68;;;10.70;;
26303;SDS011;57113;48.680;8.890;2022-12-10T11:09:59;14.93;;;10.50;;
26303;SDS011;57113;48.680;8.890;2022-12-10T11:12:34;14.68;;;10.88;;
26303;SDS011;57113;48.680;8.890;2022-12-10T11:15:39;15.25;;;10.70;;
26303;SDS011;57113;48.680;8.890;2022-12-10T11:18:00;14.25;;;10.77;;
26303;SDS011;57113;48.680;8.890;2022-12-10T11:20:33;15.65;;;10.95;;
26303;SDS011;57113;48.680;8.890;2022-12-10T11:23:00;16.80;;;11.20;;
26303;SDS011;57113;48.680;8.890;2022-12-10T11:26:18;15.52;;;10.40;;
26303;SDS011;57113;48.680;8.890;2022-12-10T11:33:49;15.45;;;11.07;;
26303;SDS011;57113;48.680;8.890;2022-12-10T11:39:15;15.10;;;10.95;;
26303;SDS011;57113;48.680;8.890;2022-12-10T11:55:39;21.02;;;15.63;;
26303;SDS011;57113;48.680;8.890;2022-12-10T12:09:38;20.80;;;14.90;;
26303;SDS011;57113;48.680;8.890;2022-12-10T12:12:35;22.50;;;15.00;;
26303;SDS011;57113;48.680;8.890;2022-12-10T12:15:14;20.63;;;14.73;;
26303;SDS011;57113;48.680;8.890;2022-12-10T12:17:54;20.90;;;15.00;;
26303;SDS011;57113;48.680;8.890;2022-12-10T12:20:30;19.52;;;13.90;;
26303;SDS011;57113;48.680;8.890;2022-12-10T12:23:11;20.25;;;14.93;;
26303;SDS011;57113;48.680;8.890;2022-12-10T12:26:02;18.40;;;14.00;;
26303;SDS011;57113;48.680;8.890;2022-12-10T12:28:41;24.08;;;15.23;;
26303;SDS011;57113;48.680;8.890;2022-12-10T12:31:29;20.55;;;14.18;;
26303;SDS011;57113;48.680;8.890;2022-12-10T12:34:04;21.35;;;14.45;;
26303;SDS011;57113;48.680;8.890;2022-12-10T12:36:46;19.90;;;14.05;;
26303;SDS011;57113;48.680;8.890;2022-12-10T12:39:32;18.38;;;13.85;;
26303;SDS011;57113;48.680;8.890;2022-12-10T12:45:10;18.85;;;12.60;;
26303;SDS011;57113;48.680;8.890;2022-12-10T12:51:00;17.15;;;12.60;;
26303;SDS011;57113;48.680;8.890;2022-12-10T12:53:35;19.58;;;13.32;;
26303;SDS011;57113;48.680;8.890;2022-12-10T12:56:05;17.55;;;12.43;;
26303;SDS011;57113;48.680;8.890;2022-12-10T13:01:20;16.65;;;12.38;;
26303;SDS011;57113;48.680;8.890;2022-12-10T13:03:53;16.58;;;11.68;;
26303;SDS011;57113;48.680;8.890;2022-12-10T13:17:28;17.23;;;11.98;;
26303;SDS011;57113;48.680;8.890;2022-12-10T13:22:55;16.88;;;10.98;;
26303;SDS011;57113;48.680;8.890;2022-12-10T13:33:49;14.98;;;10.77;;
26303;SDS011;57113;48.680;8.890;2022-12-10T13:36:21;15.65;;;10.98;;
26303;SDS011;57113;48.680;8.890;2022-12-10T13:38:58;14.00;;;10.45;;
26303;SDS011;57113;48.680;8.890;2022-12-10T13:55:33;15.73;;;10.25;;
26303;SDS011;57113;48.680;8.890;2022-12-10T14:00:48;18.20;;;10.75;;
26303;SDS011;57113;48.680;8.890;2022-12-10T14:03:40;15.43;;;10.55;;
26303;SDS011;57113;48.680;8.890;2022-12-10T14:06:19;13.48;;;10.30;;
26303;SDS011;57113;48.680;8.890;2022-12-10T14:09:11;14.10;;;9.52;;
26303;SDS011;57113;48.680;8.890;2022-12-10T14:11:51;14.25;;;9.25;;
26303;SDS011;57113;48.680;8.890;2022-12-10T14:14:38;12.05;;;9.30;;
26303;SDS011;57113;48.680;8.890;2022-12-10T14:17:11;13.40;;;9.43;;
26303;SDS011;57113;48.680;8.890;2022-12-10T14:19:43;13.07;;;10.15;;
26303;SDS011;57113;48.680;8.890;2022-12-10T14:22:21;13.38;;;9.52;;
26303;SDS011;57113;48.680;8.890;2022-12-10T14:25:00;12.20;;;9.35;;
26303;SDS011;57113;48.680;8.890;2022-12-10T14:27:29;13.65;;;9.50;;
26303;SDS011;57113;48.680;8.890;2022-12-10T14:30:00;13.43;;;9.38;;
26303;SDS011;57113;48.680;8.890;2022-12-10T14:32:45;14.48;;;9.18;;
26303;SDS011;57113;48.680;8.890;2022-12-10T14:35:17;13.50;;;9.23;;
26303;SDS011;57113;48.680;8.890;2022-12-10T14:37:46;12.90;;;9.13;;
26303;SDS011;57113;48.680;8.890;2022-12-10T14:40:58;11.48;;;8.63;;
26303;SDS011;57113;48.680;8.890;2022-12-10T14:43:05;12.35;;;9.50;;
26303;SDS011;57113;48.680;8.890;2022-12-10T14:45:52;11.57;;;9.07;;
26303;SDS011;57113;48.680;8.890;2022-12-10T14:48:21;12.43;;;9.18;;
26303;SDS011;57113;48.680;8.890;2022-12-10T14:50:48;14.20;;;9.82;;
26303;SDS011;57113;48.680;8.890;2022-12-10T14:53:23;13.80;;;9.60;;
26303;SDS011;57113;48.680;8.890;2022-12-10T14:55:50;13.07;;;8.98;;
26303;SDS011;57113;48.680;8.890;2022-12-10T14:58:42;11.77;;;9.15;;
26303;SDS011;57113;48.680;8.890;2022-12-10T15:01:36;11.75;;;8.63;;
26303;SDS011;57113;48.680;8.890;2022-12-10T15:04:06;12.85;;;8.90;;
26303;SDS011;57113;48.680;8.890;2022-12-10T15:06:37;12.63;;;8.93;;
26303;SDS011;57113;48.680;8.890;2022-12-10T15:09:04;11.70;;;8.70;;
26303;SDS011;57113;48.680;8.890;2022-12-10T15:11:35;12.32;;;8.85;;
26303;SDS011;57113;48.680;8.890;2022-12-10T15:14:01;12.27;;;9.10;;
26303;SDS011;57113;48.680;8.890;2022-12-10T15:19:21;12.25;;;9.30;;
26303;SDS011;57113;48.680;8.890;2022-12-10T15:24:41;14.80;;;8.50;;
26303;SDS011;57113;48.680;8.890;2022-12-10T15:27:21;11.57;;;8.38;;
26303;SDS011;57113;48.680;8.890;2022-12-10T15:29:48;12.65;;;8.85;;
26303;SDS011;57113;48.680;8.890;2022-12-10T15:35:00;12.23;;;8.82;;
26303;SDS011;57113;48.680;8.890;2022-12-10T15:37:33;13.70;;;9.07;;
26303;SDS011;57113;48.680;8.890;2022-12-10T15:40:02;11.65;;;8.80;;
26303;SDS011;57113;48.680;8.890;2022-12-10T15:42:36;12.63;;;8.65;;
26303;SDS011;57113;48.680;8.890;2022-12-10T15:45:24;12.90;;;9.10;;
26303;SDS011;57113;48.680;8.890;2022-12-10T15:47:54;11.38;;;8.00;;
26303;SDS011;57113;48.680;8.890;2022-12-10T15:50:23;10.70;;;7.80;;
26303;SDS011;57113;48.680;8.890;2022-12-10T15:52:50;13.82;;;8.85;;
26303;SDS011;57113;48.680;8.890;2022-12-10T15:55:16;12.98;;;8.88;;
26303;SDS011;57113;48.680;8.890;2022-12-10T15:57:42;12.45;;;8.45;;
26303;SDS011;57113;48.680;8.890;2022-12-10T16:02:53;14.60;;;8.68;;
26303;SDS011;57113;48.680;8.890;2022-12-10T16:05:32;12.40;;;8.02;;
26303;SDS011;57113;48.680;8.890;2022-12-10T16:10:47;12.52;;;8.55;;
26303;SDS011;57113;48.680;8.890;2022-12-10T16:15:53;12.23;;;8.32;;
26303;SDS011;57113;48.680;8.890;2022-12-10T16:18:22;12.23;;;8.43;;
26303;SDS011;57113;48.680;8.890;2022-12-10T16:20:48;12.32;;;8.50;;
26303;SDS011;57113;48.680;8.890;2022-12-10T16:23:14;11.88;;;8.85;;
26303;SDS011;57113;48.680;8.890;2022-12-10T16:25:40;11.18;;;7.80;;
26303;SDS011;57113;48.680;8.890;2022-12-10T16:28:10;10.80;;;8.00;;
26303;SDS011;57113;48.680;8.890;2022-12-10T16:30:41;11.63;;;8.40;;
26303;SDS011;57113;48.680;8.890;2022-12-10T16:33:15;12.00;;;8.60;;
26303;SDS011;57113;48.680;8.890;2022-12-10T16:35:43;11.48;;;8.55;;
26303;SDS011;57113;48.680;8.890;2022-12-10T16:38:09;11.93;;;8.48;;
26303;SDS011;57113;48.680;8.890;2022-12-10T16:40:35;10.27;;;7.80;;
26303;SDS011;57113;48.680;8.890;2022-12-10T16:43:01;11.15;;;8.07;;
26303;SDS011;57113;48.680;8.890;2022-12-10T16:45:29;11.20;;;8.32;;
26303;SDS011;57113;48.680;8.890;2022-12-10T16:47:57;10.70;;;7.85;;
26303;SDS011;57113;48.680;8.890;2022-12-10T16:50:23;11.68;;;8.32;;
26303;SDS011;57113;48.680;8.890;2022-12-10T16:52:49;12.02;;;8.75;;
26303;SDS011;57113;48.680;8.890;2022-12-10T16:55:17;14.20;;;9.30;;